createdAt,value
2017-12-09T00:00:15.457Z,98699.69
2017-12-09T00:02:43.741Z,98697.12
2017-12-09T00:05:12.012Z,98696.61
2017-12-09T00:07:40.311Z,98687.02
2017-12-09T00:10:08.566Z,98677.38
2017-12-09T00:12:36.908Z,98676.28
2017-12-09T00:15:05.178Z,98678.72
2017-12-09T00:17:33.472Z,98675.55
2017-12-09T00:20:01.751Z,98674.91
2017-12-09T00:22:47.844Z,98683.99
2017-12-09T00:25:16.103Z,98692.52
2017-12-09T00:27:44.409Z,98685.27
2017-12-09T00:30:12.690Z,98689.02
2017-12-09T00:32:40.987Z,98664.95
2017-12-09T00:35:09.264Z,98687.55
2017-12-09T00:37:37.536Z,98698.19
2017-12-09T00:40:05.813Z,98701.16
2017-12-09T00:42:34.088Z,98693.69
2017-12-09T00:45:02.365Z,98704.12
2017-12-09T00:47:30.630Z,98710.36
2017-12-09T00:49:58.924Z,98709.54
2017-12-09T00:52:27.218Z,98715.39
2017-12-09T00:54:55.522Z,98708.31
2017-12-09T00:57:23.831Z,98714.55
2017-12-09T00:59:52.210Z,98702.77
2017-12-09T01:02:20.527Z,98697.07
2017-12-09T01:04:48.799Z,98716.17
2017-12-09T01:07:17.096Z,98707.63
2017-12-09T01:09:45.380Z,98702.83
2017-12-09T01:12:13.694Z,98726.16
2017-12-09T01:14:41.972Z,98713.13
2017-12-09T01:17:22.247Z,98720.59
2017-12-09T01:19:50.515Z,98721.37
2017-12-09T01:22:18.836Z,98732.79
2017-12-09T01:24:47.136Z,98722.43
2017-12-09T01:27:15.440Z,98738.07
2017-12-09T01:29:43.714Z,98737.60
2017-12-09T01:32:12.875Z,98739.09
2017-12-09T01:34:41.255Z,98740.55
2017-12-09T01:37:09.520Z,98742.57
2017-12-09T01:39:37.840Z,98759.13
2017-12-09T01:42:06.120Z,98746.81
2017-12-09T01:44:34.406Z,98755.97
2017-12-09T01:47:03.615Z,98762.56
2017-12-09T01:49:31.923Z,98770.24
2017-12-09T01:52:00.220Z,98764.51
2017-12-09T01:54:28.522Z,98755.17
2017-12-09T01:56:57.488Z,98731.41
2017-12-09T01:59:25.775Z,98748.60
2017-12-09T02:01:54.094Z,98752.02
2017-12-09T02:04:22.339Z,98759.38
2017-12-09T02:06:50.591Z,98769.91
2017-12-09T02:09:18.854Z,98773.08
2017-12-09T02:11:47.143Z,98753.28
2017-12-09T02:14:15.403Z,98775.17
2017-12-09T02:16:43.694Z,98776.08
2017-12-09T02:19:11.975Z,98769.20
2017-12-09T02:21:40.275Z,98775.00
2017-12-09T02:24:08.869Z,98777.52
2017-12-09T02:26:37.191Z,98767.56
2017-12-09T02:29:05.503Z,98782.01
2017-12-09T02:31:33.796Z,98784.01
2017-12-09T02:34:02.084Z,98781.83
2017-12-09T02:36:30.351Z,98783.87
2017-12-09T02:38:58.634Z,98793.70
2017-12-09T02:41:27.741Z,98805.96
2017-12-09T02:43:56.048Z,98800.94
2017-12-09T02:46:24.324Z,98795.18
2017-12-09T02:48:52.628Z,98789.08
2017-12-09T02:51:20.920Z,98790.10
2017-12-09T02:53:49.210Z,98799.45
2017-12-09T02:56:17.467Z,98797.39
2017-12-09T02:58:45.775Z,98791.55
2017-12-09T03:01:14.054Z,98799.37
2017-12-09T03:03:42.350Z,98785.66
2017-12-09T03:06:10.608Z,98787.55
2017-12-09T03:08:38.939Z,98784.86
2017-12-09T03:11:07.247Z,98793.98
2017-12-09T03:13:35.509Z,98792.30
2017-12-09T03:16:03.775Z,98785.80
2017-12-09T03:18:32.066Z,98801.66
2017-12-09T03:21:00.374Z,98793.80
2017-12-09T03:23:28.627Z,98791.73
2017-12-09T03:25:56.903Z,98789.84
2017-12-09T03:28:25.170Z,98796.40
2017-12-09T03:30:53.456Z,98797.78
2017-12-09T03:33:21.738Z,98799.02
2017-12-09T03:35:50.044Z,98799.86
2017-12-09T03:38:19.180Z,98801.44
2017-12-09T03:40:47.462Z,98802.24
2017-12-09T03:43:15.727Z,98802.20
2017-12-09T03:45:44.015Z,98812.34
2017-12-09T03:48:12.332Z,98818.65
2017-12-09T03:50:40.576Z,98818.98
2017-12-09T03:53:08.872Z,98811.40
2017-12-09T03:55:37.134Z,98816.88
2017-12-09T03:58:05.699Z,98816.38
2017-12-09T04:00:33.980Z,98810.88
2017-12-09T04:03:02.268Z,98798.15
2017-12-09T04:05:30.546Z,98810.51
2017-12-09T04:07:58.828Z,98796.26
2017-12-09T04:10:27.099Z,98811.00
2017-12-09T04:12:55.411Z,98810.47
2017-12-09T04:15:23.655Z,98823.45
2017-12-09T04:17:51.949Z,98823.18
2017-12-09T04:20:20.227Z,98816.48
2017-12-09T04:22:48.482Z,98822.96
2017-12-09T04:25:16.763Z,98828.26
2017-12-09T04:27:45.015Z,98824.83
2017-12-09T04:30:13.523Z,98829.00
2017-12-09T04:32:41.774Z,98829.93
2017-12-09T04:35:10.096Z,98829.75
2017-12-09T04:37:38.352Z,98834.55
2017-12-09T04:40:06.628Z,98831.23
2017-12-09T04:42:34.893Z,98842.31
2017-12-09T04:45:03.189Z,98845.20
2017-12-09T04:47:31.451Z,98821.56
2017-12-09T04:49:59.753Z,98839.19
2017-12-09T04:52:28.009Z,98831.50
2017-12-09T04:54:56.299Z,98830.88
2017-12-09T04:57:24.583Z,98827.13
2017-12-09T04:59:52.836Z,98824.95
2017-12-09T05:02:21.144Z,98820.30
2017-12-09T05:04:49.411Z,98830.80
2017-12-09T05:07:17.731Z,98829.95
2017-12-09T05:09:46.038Z,98823.12
2017-12-09T05:12:14.437Z,98823.20
2017-12-09T05:14:42.682Z,98820.59
2017-12-09T05:17:11.192Z,98812.73
2017-12-09T05:19:39.734Z,98802.81
2017-12-09T05:22:08.032Z,98807.52
2017-12-09T05:24:36.651Z,98814.97
2017-12-09T05:27:05.263Z,98809.11
2017-12-09T05:29:33.587Z,98810.20
2017-12-09T05:32:01.868Z,98811.84
2017-12-09T05:34:30.163Z,98820.11
2017-12-09T05:36:58.482Z,98820.39
2017-12-09T05:39:26.770Z,98825.50
2017-12-09T05:41:55.034Z,98827.97
2017-12-09T05:44:23.327Z,98830.73
2017-12-09T05:46:51.678Z,98834.45
2017-12-09T05:49:19.912Z,98837.52
2017-12-09T05:51:48.228Z,98846.42
2017-12-09T05:54:17.407Z,98857.42
2017-12-09T05:56:45.723Z,98851.64
2017-12-09T05:59:13.999Z,98851.72
2017-12-09T06:01:42.368Z,98842.23
2017-12-09T06:04:10.644Z,98834.46
2017-12-09T06:06:38.956Z,98836.66
2017-12-09T06:09:07.240Z,98832.95
2017-12-09T06:11:35.517Z,98826.53
2017-12-09T06:14:03.831Z,98821.38
2017-12-09T06:16:32.176Z,98820.08
2017-12-09T06:19:00.407Z,98817.95
2017-12-09T06:21:28.695Z,98808.74
2017-12-09T06:23:57.075Z,98817.91
2017-12-09T06:26:25.335Z,98810.11
2017-12-09T06:28:53.611Z,98815.90
2017-12-09T06:31:21.884Z,98815.96
2017-12-09T06:33:50.157Z,98830.83
2017-12-09T06:36:18.394Z,98821.65
2017-12-09T06:38:46.678Z,98827.98
2017-12-09T06:41:14.975Z,98824.09
2017-12-09T06:43:43.255Z,98824.39
2017-12-09T06:46:11.553Z,98822.09
2017-12-09T06:48:39.808Z,98815.20
2017-12-09T06:51:08.878Z,98828.79
2017-12-09T06:53:37.136Z,98837.41
2017-12-09T06:56:05.655Z,98842.33
2017-12-09T06:58:33.900Z,98828.44
2017-12-09T07:01:02.242Z,98838.11
2017-12-09T07:03:30.506Z,98847.51
2017-12-09T07:05:58.782Z,98848.28
2017-12-09T07:08:27.054Z,98854.86
2017-12-09T07:10:55.379Z,98851.43
2017-12-09T07:13:23.639Z,98849.05
2017-12-09T07:15:51.927Z,98860.61
2017-12-09T07:18:20.192Z,98864.35
2017-12-09T07:20:48.476Z,98862.86
2017-12-09T07:23:16.751Z,98875.22
2017-12-09T07:25:44.998Z,98870.28
2017-12-09T07:28:13.305Z,98866.17
2017-12-09T07:30:41.572Z,98876.56
2017-12-09T07:33:09.861Z,98898.30
2017-12-09T07:35:38.737Z,98883.02
2017-12-09T07:38:07.035Z,98891.83
2017-12-09T07:40:35.759Z,98891.43
2017-12-09T07:43:04.063Z,98882.95
2017-12-09T07:45:32.332Z,98890.45
2017-12-09T07:48:00.613Z,98895.25
2017-12-09T07:50:28.869Z,98910.05
2017-12-09T07:52:57.194Z,98911.59
2017-12-09T07:55:25.461Z,98904.51
2017-12-09T07:57:53.740Z,98899.09
2017-12-09T08:00:22.026Z,98885.98
2017-12-09T08:02:50.301Z,98907.09
2017-12-09T08:05:18.575Z,98913.00
2017-12-09T08:07:46.843Z,98913.19
2017-12-09T08:10:15.133Z,98919.58
2017-12-09T08:12:44.079Z,98912.30
2017-12-09T08:15:12.377Z,98925.45
2017-12-09T08:17:40.635Z,98926.14
2017-12-09T08:20:08.928Z,98899.92
2017-12-09T08:22:38.386Z,98914.92
2017-12-09T08:25:06.667Z,98928.85
2017-12-09T08:27:34.923Z,98921.09
2017-12-09T08:30:03.295Z,98925.61
2017-12-09T08:32:31.610Z,98933.52
2017-12-09T08:35:00.883Z,98927.02
2017-12-09T08:37:29.176Z,98925.38
2017-12-09T08:39:57.446Z,98910.60
2017-12-09T08:42:25.759Z,98925.28
2017-12-09T08:44:54.033Z,98936.09
2017-12-09T08:47:22.320Z,98928.69
2017-12-09T08:49:50.593Z,98927.72
2017-12-09T08:52:18.897Z,98915.09
2017-12-09T08:54:47.204Z,98918.20
2017-12-09T08:57:15.519Z,98910.89
2017-12-09T09:02:11.134Z,98897.00
2017-12-09T09:04:39.442Z,98906.25
2017-12-09T09:07:07.765Z,98909.78
2017-12-09T09:09:36.058Z,98916.08
2017-12-09T09:12:04.322Z,98916.39
2017-12-09T09:14:32.619Z,98907.59
2017-12-09T09:17:00.876Z,98919.22
2017-12-09T09:19:29.171Z,98911.37
2017-12-09T09:21:57.454Z,98894.16
2017-12-09T09:24:25.838Z,98904.86
2017-12-09T09:26:54.054Z,98905.80
2017-12-09T09:29:23.588Z,98907.65
2017-12-09T09:31:51.831Z,98919.34
2017-12-09T09:34:20.117Z,98898.54
2017-12-09T09:36:48.429Z,98919.84
2017-12-09T09:39:16.711Z,98906.97
2017-12-09T09:41:45.697Z,98937.36
2017-12-09T09:44:14.228Z,98947.48
2017-12-09T09:46:42.505Z,98949.88
2017-12-09T09:49:10.820Z,98958.27
2017-12-09T09:51:39.171Z,98964.59
2017-12-09T09:54:07.447Z,98962.17
2017-12-09T09:56:35.748Z,98972.25
2017-12-09T09:59:04.844Z,98971.78
2017-12-09T10:01:33.164Z,98977.61
2017-12-09T10:04:01.421Z,98965.89
2017-12-09T10:06:29.794Z,98977.33
2017-12-09T10:08:58.058Z,98965.67
2017-12-09T10:11:26.323Z,98964.50
2017-12-09T10:13:55.523Z,98945.77
2017-12-09T10:16:23.836Z,98961.58
2017-12-09T10:18:52.172Z,98947.59
2017-12-09T10:21:20.468Z,98940.87
2017-12-09T10:23:48.786Z,98944.21
2017-12-09T10:26:18.365Z,98953.39
2017-12-09T10:28:46.930Z,98945.86
2017-12-09T10:31:15.220Z,98930.22
2017-12-09T10:33:43.728Z,98928.19
2017-12-09T10:36:12.002Z,98940.19
2017-12-09T10:38:40.259Z,98936.67
2017-12-09T10:41:08.551Z,98908.58
2017-12-09T10:43:36.809Z,98926.64
2017-12-09T10:46:05.701Z,98930.48
2017-12-09T10:48:33.992Z,98929.37
2017-12-09T10:51:02.295Z,98931.56
2017-12-09T10:53:30.615Z,98908.19
2017-12-09T10:55:58.903Z,98925.05
2017-12-09T10:58:27.182Z,98913.27
2017-12-09T11:00:55.545Z,98929.17
2017-12-09T11:03:23.831Z,98934.13
2017-12-09T11:05:52.111Z,98922.06
2017-12-09T11:08:21.318Z,98919.14
2017-12-09T11:10:49.561Z,98919.52
2017-12-09T11:13:17.953Z,98914.61
2017-12-09T11:15:46.184Z,98938.22
2017-12-09T11:18:14.465Z,98921.54
2017-12-09T11:20:42.770Z,98917.03
2017-12-09T11:23:11.056Z,98917.52
2017-12-09T11:25:39.347Z,98928.64
2017-12-09T11:28:08.322Z,98929.09
2017-12-09T11:30:36.603Z,98931.18
2017-12-09T11:33:05.895Z,98927.13
2017-12-09T11:35:34.178Z,98928.61
2017-12-09T11:38:02.506Z,98917.07
2017-12-09T11:40:30.797Z,98937.42
2017-12-09T11:42:59.085Z,98932.46
2017-12-09T11:45:27.399Z,98942.23
2017-12-09T11:47:56.699Z,98939.19
2017-12-09T11:50:24.966Z,98956.25
2017-12-09T11:52:53.248Z,98959.45
2017-12-09T11:55:21.619Z,98950.44
2017-12-09T11:57:49.891Z,98947.75
2017-12-09T12:00:18.171Z,98956.48
2017-12-09T12:02:47.251Z,98956.06
2017-12-09T12:05:15.586Z,98959.45
2017-12-09T12:07:45.745Z,98950.56
2017-12-09T12:10:14.029Z,98927.11
2017-12-09T12:12:42.364Z,98944.77
2017-12-09T12:15:10.671Z,98934.66
2017-12-09T12:17:40.556Z,98939.75
2017-12-09T12:20:09.087Z,98937.64
2017-12-09T12:22:37.355Z,98938.14
2017-12-09T12:25:05.691Z,98948.16
2017-12-09T12:27:34.314Z,98952.51
2017-12-09T12:30:02.601Z,98952.48
2017-12-09T12:32:30.880Z,98935.94
2017-12-09T12:34:59.155Z,98927.84
2017-12-09T12:37:27.480Z,98935.72
2017-12-09T12:39:57.109Z,98938.45
2017-12-09T12:42:25.571Z,98949.92
2017-12-09T12:44:53.981Z,98935.63
2017-12-09T12:47:22.206Z,98950.58
2017-12-09T12:49:51.011Z,98945.86
2017-12-09T12:52:19.858Z,98937.52
2017-12-09T12:54:48.139Z,98960.41
2017-12-09T12:57:17.024Z,98951.75
2017-12-09T12:59:45.536Z,98947.31
2017-12-09T13:02:13.787Z,98935.97
2017-12-09T13:04:42.083Z,98938.23
2017-12-09T13:07:10.392Z,98940.68
2017-12-09T13:09:38.695Z,98920.70
2017-12-09T13:12:07.024Z,98934.48
2017-12-09T13:14:35.515Z,98930.66
2017-12-09T13:17:04.915Z,98938.35
2017-12-09T13:19:33.198Z,98933.61
2017-12-09T13:22:01.522Z,98926.72
2017-12-09T13:24:29.779Z,98912.77
2017-12-09T13:26:58.048Z,98928.20
2017-12-09T13:29:27.517Z,98926.78
2017-12-09T13:31:55.791Z,98925.10
2017-12-09T13:34:24.055Z,98920.39
2017-12-09T13:36:52.351Z,98898.09
2017-12-09T13:39:20.623Z,98932.94
2017-12-09T13:41:48.949Z,98928.13
2017-12-09T13:44:17.891Z,98920.68
2017-12-09T13:46:46.691Z,98922.92
2017-12-09T13:49:14.986Z,98928.92
2017-12-09T13:51:43.273Z,98922.26
2017-12-09T13:54:11.549Z,98921.66
2017-12-09T13:56:39.827Z,98912.50
2017-12-09T13:59:08.507Z,98911.64
2017-12-09T14:01:36.759Z,98904.59
2017-12-09T14:04:05.050Z,98917.94
2017-12-09T14:06:33.295Z,98906.29
2017-12-09T14:09:02.598Z,98907.78
2017-12-09T14:11:30.911Z,98907.23
2017-12-09T14:13:59.208Z,98911.59
2017-12-09T14:16:27.538Z,98907.69
2017-12-09T14:18:55.948Z,98900.05
2017-12-09T14:21:24.323Z,98905.48
2017-12-09T14:23:52.607Z,98899.38
2017-12-09T14:26:20.908Z,98912.36
2017-12-09T14:28:49.178Z,98903.78
2017-12-09T14:31:17.495Z,98900.50
2017-12-09T14:33:45.780Z,98901.98
2017-12-09T14:36:14.112Z,98896.04
2017-12-09T14:38:42.376Z,98900.80
2017-12-09T14:41:10.691Z,98888.89
2017-12-09T14:43:39.110Z,98896.41
2017-12-09T14:46:07.455Z,98897.57
2017-12-09T14:48:35.770Z,98895.69
2017-12-09T14:51:05.078Z,98891.47
2017-12-09T14:53:33.411Z,98883.24
2017-12-09T14:56:01.693Z,98880.69
2017-12-09T14:58:30.153Z,98877.41
2017-12-09T15:00:58.418Z,98880.96
2017-12-09T15:03:27.607Z,98884.68
2017-12-09T15:05:55.855Z,98883.16
2017-12-09T15:08:24.134Z,98854.89
2017-12-09T15:10:52.404Z,98880.41
2017-12-09T15:13:20.679Z,98875.52
2017-12-09T15:15:48.959Z,98875.29
2017-12-09T15:18:17.238Z,98875.60
2017-12-09T15:20:45.536Z,98868.15
2017-12-09T15:23:13.848Z,98867.11
2017-12-09T15:25:42.473Z,98865.59
2017-12-09T15:28:11.416Z,98867.28
2017-12-09T15:30:40.662Z,98859.65
2017-12-09T15:33:09.555Z,98868.23
2017-12-09T15:35:37.852Z,98869.77
2017-12-09T15:38:06.110Z,98874.34
2017-12-09T15:40:34.397Z,98853.41
2017-12-09T15:43:03.231Z,98868.28
2017-12-09T15:45:31.487Z,98874.22
2017-12-09T15:47:59.825Z,98863.34
2017-12-09T15:50:28.118Z,98875.88
2017-12-09T15:52:56.379Z,98867.52
2017-12-09T15:55:24.748Z,98876.64
2017-12-09T15:57:53.071Z,98871.16
2017-12-09T16:00:21.319Z,98863.06
2017-12-09T16:02:49.612Z,98865.84
2017-12-09T16:05:17.912Z,98858.58
2017-12-09T16:07:46.259Z,98831.20
2017-12-09T16:10:14.539Z,98860.05
2017-12-09T16:12:42.840Z,98858.75
2017-12-09T16:15:11.244Z,98852.69
2017-12-09T16:17:39.564Z,98852.46
2017-12-09T16:20:07.850Z,98853.94
2017-12-09T16:22:36.155Z,98849.13
2017-12-09T16:25:06.057Z,98852.33
2017-12-09T16:27:34.903Z,98795.55
2017-12-09T16:30:03.212Z,98834.63
2017-12-09T16:32:31.492Z,98852.77
2017-12-09T16:34:59.828Z,98831.80
2017-12-09T16:37:28.103Z,98844.69
2017-12-09T16:39:56.363Z,98832.95
2017-12-09T16:42:24.642Z,98824.19
2017-12-09T16:44:52.978Z,98826.80
2017-12-09T16:47:21.268Z,98839.34
2017-12-09T16:49:49.831Z,98839.74
2017-12-09T16:52:19.207Z,98831.92
2017-12-09T16:54:47.500Z,98830.59
2017-12-09T16:57:15.836Z,98829.81
2017-12-09T16:59:44.094Z,98827.48
2017-12-09T17:02:12.370Z,98814.53
2017-12-09T17:04:40.732Z,98829.55
2017-12-09T17:07:09.437Z,98827.21
2017-12-09T17:09:37.695Z,98835.84
2017-12-09T17:12:05.965Z,98831.48
2017-12-09T17:14:34.288Z,98832.97
2017-12-09T17:17:02.571Z,98829.78
2017-12-09T17:19:30.948Z,98827.17
2017-12-09T17:21:59.220Z,98816.66
2017-12-09T17:24:27.608Z,98828.19
2017-12-09T17:26:55.935Z,98834.57
2017-12-09T17:29:24.275Z,98823.34
2017-12-09T17:31:52.611Z,98828.91
2017-12-09T17:34:22.072Z,98827.94
2017-12-09T17:36:50.354Z,98820.25
2017-12-09T17:39:18.638Z,98826.89
2017-12-09T17:41:46.968Z,98826.14
2017-12-09T17:44:15.238Z,98819.94
2017-12-09T17:46:43.527Z,98824.34
2017-12-09T17:49:11.826Z,98805.66
2017-12-09T17:51:40.111Z,98796.89
2017-12-09T17:54:08.385Z,98813.05
2017-12-09T17:56:36.727Z,98810.45
2017-12-09T17:59:05.068Z,98815.98
2017-12-09T18:01:34.171Z,98816.02
2017-12-09T18:04:02.518Z,98816.92
2017-12-09T18:06:30.995Z,98831.92
2017-12-09T18:08:59.546Z,98828.35
2017-12-09T18:11:27.861Z,98828.14
2017-12-09T18:13:56.203Z,98824.70
2017-12-09T18:16:24.472Z,98819.77
2017-12-09T18:18:53.336Z,98821.09
2017-12-09T18:21:21.670Z,98806.20
2017-12-09T18:23:50.028Z,98813.91
2017-12-09T18:26:18.334Z,98786.91
2017-12-09T18:28:46.607Z,98801.75
2017-12-09T18:31:14.873Z,98799.21
2017-12-09T18:33:43.194Z,98801.18
2017-12-09T18:36:11.576Z,98798.34
2017-12-09T18:38:39.843Z,98799.66
2017-12-09T18:41:08.160Z,98806.70
2017-12-09T18:43:36.457Z,98804.76
2017-12-09T18:46:05.447Z,98800.97
2017-12-09T18:48:33.744Z,98802.53
2017-12-09T18:51:02.035Z,98792.41
2017-12-09T18:53:30.288Z,98799.91
2017-12-09T18:55:58.639Z,98792.95
2017-12-09T18:58:26.904Z,98797.72
2017-12-09T19:00:55.299Z,98789.64
2017-12-09T19:03:23.612Z,98782.11
2017-12-09T19:05:51.934Z,98792.89
2017-12-09T19:08:21.460Z,98780.14
2017-12-09T19:10:49.754Z,98775.16
2017-12-09T19:13:18.084Z,98786.31
2017-12-09T19:15:46.391Z,98772.85
2017-12-09T19:18:14.708Z,98775.36
2017-12-09T19:20:42.954Z,98777.89
2017-12-09T19:23:11.337Z,98771.84
2017-12-09T19:25:39.631Z,98770.72
2017-12-09T19:28:07.923Z,98771.17
2017-12-09T19:30:36.199Z,98761.27
2017-12-09T19:33:04.513Z,98761.27
2017-12-09T19:35:32.788Z,98753.28
2017-12-09T19:38:01.074Z,98765.95
2017-12-09T19:40:29.356Z,98758.28
2017-12-09T19:42:57.627Z,98751.96
2017-12-09T19:45:25.893Z,98747.85
2017-12-09T19:47:54.170Z,98746.06
2017-12-09T19:50:22.456Z,98743.28
2017-12-09T19:52:50.721Z,98737.66
2017-12-09T19:55:19.010Z,98740.65
2017-12-09T19:57:47.276Z,98738.27
2017-12-09T20:00:18.125Z,98735.80
2017-12-09T20:02:46.485Z,98739.70
2017-12-09T20:05:14.778Z,98726.23
2017-12-09T20:07:43.924Z,98739.88
2017-12-09T20:10:12.238Z,98735.86
2017-12-09T20:12:40.510Z,98739.05
2017-12-09T20:15:08.785Z,98734.14
2017-12-09T20:17:37.064Z,98727.13
2017-12-09T20:20:05.347Z,98728.33
2017-12-09T20:22:33.684Z,98725.70
2017-12-09T20:25:01.936Z,98718.22
2017-12-09T20:27:30.288Z,98712.41
2017-12-09T20:29:58.543Z,98707.14
2017-12-09T20:32:26.827Z,98717.85
2017-12-09T20:34:55.071Z,98713.98
2017-12-09T20:37:23.352Z,98702.15
2017-12-09T20:39:51.605Z,98689.76
2017-12-09T20:42:19.891Z,98696.33
2017-12-09T20:44:48.247Z,98709.38
2017-12-09T20:47:16.494Z,98692.42
2017-12-09T20:49:44.750Z,98692.84
2017-12-09T20:52:13.029Z,98683.37
2017-12-09T20:54:41.283Z,98682.23
2017-12-09T20:57:09.532Z,98677.09
2017-12-09T20:59:37.820Z,98683.77
2017-12-09T21:02:06.079Z,98671.80
2017-12-09T21:04:34.360Z,98682.01
2017-12-09T21:07:02.595Z,98676.97
2017-12-09T21:09:30.889Z,98664.95
2017-12-09T21:11:59.154Z,98671.16
2017-12-09T21:14:27.428Z,98662.50
2017-12-09T21:16:55.705Z,98642.70
2017-12-09T21:19:24.005Z,98651.17
2017-12-09T21:21:52.267Z,98643.22
2017-12-09T21:24:20.584Z,98636.28
2017-12-09T21:26:48.919Z,98642.13
2017-12-09T21:29:17.164Z,98629.66
2017-12-09T21:31:45.464Z,98626.91
2017-12-09T21:34:13.748Z,98632.14
2017-12-09T21:36:42.044Z,98613.39
2017-12-09T21:39:10.290Z,98626.58
2017-12-09T21:41:38.570Z,98618.02
2017-12-09T21:44:06.841Z,98617.95
2017-12-09T21:46:35.136Z,98615.92
2017-12-09T21:49:04.185Z,98612.06
2017-12-09T21:51:32.476Z,98614.99
2017-12-09T21:54:00.747Z,98617.97
2017-12-09T21:56:29.025Z,98609.55
2017-12-09T21:58:57.565Z,98601.59
2017-12-09T22:01:26.743Z,98602.62
2017-12-09T22:03:55.041Z,98597.16
2017-12-09T22:06:23.326Z,98592.69
2017-12-09T22:08:51.616Z,98582.20
2017-12-09T22:11:19.919Z,98592.04
2017-12-09T22:13:48.203Z,98588.36
2017-12-09T22:16:16.458Z,98584.75
2017-12-09T22:18:44.710Z,98562.47
2017-12-09T22:21:13.945Z,98582.57
2017-12-09T22:23:42.254Z,98576.88
2017-12-09T22:26:10.525Z,98579.73
2017-12-09T22:28:38.784Z,98573.61
2017-12-09T22:31:07.072Z,98571.84
2017-12-09T22:33:35.341Z,98573.14
2017-12-09T22:36:03.617Z,98570.27
2017-12-09T22:38:31.891Z,98567.93
2017-12-09T22:41:00.212Z,98567.77
2017-12-09T22:43:28.496Z,98567.94
2017-12-09T22:45:56.822Z,98570.19
2017-12-09T22:48:25.100Z,98569.73
2017-12-09T22:50:53.371Z,98565.16
2017-12-09T22:53:21.630Z,98558.95
2017-12-09T22:55:49.936Z,98556.49
2017-12-09T22:58:18.189Z,98549.12
2017-12-09T23:00:46.479Z,98542.73
2017-12-09T23:03:14.775Z,98521.11
2017-12-09T23:05:43.049Z,98528.81
2017-12-09T23:08:11.352Z,98522.96
2017-12-09T23:10:39.665Z,98510.59
2017-12-09T23:13:07.955Z,98508.16
2017-12-09T23:15:36.235Z,98500.95
2017-12-09T23:18:05.210Z,98493.78
2017-12-09T23:20:34.010Z,98487.84
2017-12-09T23:23:02.276Z,98477.16
2017-12-09T23:25:30.556Z,98478.18
2017-12-09T23:27:58.865Z,98484.45
2017-12-09T23:30:27.123Z,98471.56
2017-12-09T23:32:55.620Z,98464.56
2017-12-09T23:35:23.877Z,98456.98
2017-12-09T23:37:52.136Z,98463.18
2017-12-09T23:40:20.422Z,98450.09
2017-12-09T23:42:48.697Z,98450.97
2017-12-09T23:45:16.968Z,98443.06
2017-12-09T23:47:45.310Z,98452.27
2017-12-09T23:50:13.637Z,98450.59
2017-12-09T23:52:41.893Z,98435.66
2017-12-09T23:55:10.196Z,98406.20
2017-12-09T23:57:38.447Z,98417.36
